PWSweather.com
Personal Weather Stations
Station Observations
DAVIS2016
WorthingGB

WorthingGB

Lat: 50.8130266, Lon: -0.3832443000000012

Elevation: 34.8

Station Type: davis vantage vue 6250

High Low Average
Temperature 51.7°F10.9°F 44.4°F6.9°F 48.3°F9.1°F
Dew Point 47.5°F8.6°F 42.8°F6.0°F 45.4°F7.4°F
Winds 8.0 mph -12.9 mph - Calm Calm 2.6 mph 4.2 mph
Wind Gusts 16.0 mph25.7 mph -- 6.6 mph10.6 mph
Humidity 97% 79% 90%
Pressure 30.12 in1020.00 in 29.97 in1014.90 in -
Precipitation 0.09 in2.30 in - -
Hour Temp Dew Point Humidity Winds Wind Gusts Pressure Precip Precip Rate Daily Precip Total
12:00 AM 45.0°F7.2°C 43.9°F6.6°C 96% 1.0 mph E1.6 kmh E 3.0 mph4.8 kmh 30.12 in1020.0 mb 0.00 in0.0 mm 0.00 in0.0 mm 0.00 in0.0 mm
12:15 AM 45.1°F7.3°C 44.0°F6.7°C 96% 1.0 mph E1.6 kmh E 2.0 mph3.2 kmh 30.12 in1020.0 mb 0.00 in0.0 mm 0.00 in0.0 mm 0.00 in0.0 mm
12:30 AM 45.1°F7.3°C 44.0°F6.7°C 96% 1.0 mph E1.6 kmh E 3.0 mph4.8 kmh 30.11 in1019.6 mb 0.00 in0.0 mm 0.00 in0.0 mm 0.00 in0.0 mm
12:45 AM 44.9°F7.2°C 43.8°F6.6°C 96% Calm Calm 2.0 mph3.2 kmh 30.10 in1019.3 mb 0.00 in0.0 mm 0.00 in0.0 mm 0.00 in0.0 mm
01:00 AM 45.2°F7.3°C 44.1°F6.7°C 96% 1.0 mph E1.6 kmh E 2.0 mph3.2 kmh 30.09 in1019.0 mb 0.00 in0.0 mm 0.00 in0.0 mm 0.00 in0.0 mm
01:15 AM 44.9°F7.2°C 43.8°F6.6°C 96% 1.0 mph E1.6 kmh E 3.0 mph4.8 kmh 30.09 in1019.0 mb 0.00 in0.0 mm 0.00 in0.0 mm 0.00 in0.0 mm
01:30 AM 44.6°F7.0°C 43.5°F6.4°C 96% Calm Calm -- 30.09 in1019.0 mb 0.00 in0.0 mm 0.00 in0.0 mm 0.00 in0.0 mm
01:45 AM 45.3°F7.4°C 44.5°F6.9°C 97% Calm Calm 3.0 mph4.8 kmh 30.08 in1018.6 mb 0.01 in0.3 mm 0.04 in1.0 mm 0.01 in0.3 mm
02:00 AM 45.9°F7.7°C 44.8°F7.1°C 96% 1.0 mph SE1.6 kmh SE 3.0 mph4.8 kmh 30.08 in1018.6 mb 0.01 in0.3 mm 0.00 in0.0 mm 0.01 in0.3 mm
02:15 AM 46.3°F7.9°C 45.2°F7.3°C 96% 1.0 mph SE1.6 kmh SE 3.0 mph4.8 kmh 30.07 in1018.3 mb 0.01 in0.3 mm 0.00 in0.0 mm 0.01 in0.3 mm
02:30 AM 46.3°F7.9°C 44.9°F7.2°C 95% 1.0 mph SE1.6 kmh SE 3.0 mph4.8 kmh 30.07 in1018.3 mb 0.01 in0.3 mm 0.00 in0.0 mm 0.01 in0.3 mm
02:45 AM 45.2°F7.3°C 43.6°F6.4°C 94% Calm Calm 2.0 mph3.2 kmh 30.06 in1017.9 mb 0.00 in0.0 mm 0.00 in0.0 mm 0.01 in0.3 mm
03:00 AM 44.4°F6.9°C 43.1°F6.2°C 95% Calm Calm -- 30.05 in1017.6 mb 0.00 in0.0 mm 0.00 in0.0 mm 0.01 in0.3 mm
03:15 AM 45.0°F7.2°C 43.7°F6.5°C 95% Calm Calm 2.0 mph3.2 kmh 30.04 in1017.3 mb 0.00 in0.0 mm 0.00 in0.0 mm 0.01 in0.3 mm
03:30 AM 45.3°F7.4°C 44.0°F6.7°C 95% 1.0 mph E1.6 kmh E 2.0 mph3.2 kmh 30.03 in1016.9 mb 0.00 in0.0 mm 0.00 in0.0 mm 0.01 in0.3 mm
03:45 AM 45.5°F7.5°C 44.2°F6.8°C 95% Calm Calm 2.0 mph3.2 kmh 30.03 in1016.9 mb 0.00 in0.0 mm 0.00 in0.0 mm 0.01 in0.3 mm
04:00 AM 44.9°F7.2°C 43.3°F6.3°C 94% Calm Calm 2.0 mph3.2 kmh 30.02 in1016.6 mb 0.00 in0.0 mm 0.00 in0.0 mm 0.01 in0.3 mm
04:15 AM 44.8°F7.1°C 43.5°F6.4°C 95% Calm Calm 1.0 mph1.6 kmh 30.02 in1016.6 mb 0.00 in0.0 mm 0.00 in0.0 mm 0.01 in0.3 mm
04:30 AM 45.4°F7.4°C 44.1°F6.7°C 95% 1.0 mph ESE1.6 kmh ESE 2.0 mph3.2 kmh 30.02 in1016.6 mb 0.00 in0.0 mm 0.00 in0.0 mm 0.01 in0.3 mm
04:45 AM 46.0°F7.8°C 44.6°F7.0°C 95% 1.0 mph E1.6 kmh E 5.0 mph8.0 kmh 30.02 in1016.6 mb 0.00 in0.0 mm 0.00 in0.0 mm 0.01 in0.3 mm
05:00 AM 46.0°F7.8°C 44.4°F6.9°C 94% 1.0 mph E1.6 kmh E 3.0 mph4.8 kmh 30.02 in1016.6 mb 0.00 in0.0 mm 0.00 in0.0 mm 0.01 in0.3 mm
05:15 AM 45.4°F7.4°C 43.8°F6.6°C 94% 1.0 mph NE1.6 kmh NE 3.0 mph4.8 kmh 30.01 in1016.3 mb 0.00 in0.0 mm 0.00 in0.0 mm 0.01 in0.3 mm
05:30 AM 45.1°F7.3°C 43.5°F6.4°C 94% 1.0 mph E1.6 kmh E 2.0 mph3.2 kmh 30.00 in1015.9 mb 0.00 in0.0 mm 0.00 in0.0 mm 0.01 in0.3 mm
05:45 AM 45.3°F7.4°C 44.0°F6.7°C 95% 1.0 mph E1.6 kmh E 5.0 mph8.0 kmh 30.00 in1015.9 mb 0.00 in0.0 mm 0.00 in0.0 mm 0.01 in0.3 mm
06:00 AM 45.8°F7.7°C 44.2°F6.8°C 94% 1.0 mph E1.6 kmh E 4.0 mph6.4 kmh 30.00 in1015.9 mb 0.00 in0.0 mm 0.00 in0.0 mm 0.01 in0.3 mm
06:15 AM 45.2°F7.3°C 43.3°F6.3°C 93% 1.0 mph NE1.6 kmh NE 3.0 mph4.8 kmh 30.00 in1015.9 mb 0.00 in0.0 mm 0.00 in0.0 mm 0.01 in0.3 mm
06:30 AM 44.7°F7.1°C 42.8°F6.0°C 93% Calm Calm -- 29.99 in1015.6 mb 0.00 in0.0 mm 0.00 in0.0 mm 0.01 in0.3 mm
06:45 AM 45.6°F7.6°C 44.0°F6.7°C 94% 1.0 mph SE1.6 kmh SE 4.0 mph6.4 kmh 29.99 in1015.6 mb 0.00 in0.0 mm 0.00 in0.0 mm 0.01 in0.3 mm
07:00 AM 46.5°F8.1°C 44.3°F6.8°C 92% 3.0 mph SE4.8 kmh SE 8.0 mph12.9 kmh 29.99 in1015.6 mb 0.00 in0.0 mm 0.00 in0.0 mm 0.01 in0.3 mm
07:15 AM 47.3°F8.5°C 44.5°F6.9°C 90% 3.0 mph SSE4.8 kmh SSE 9.0 mph14.5 kmh 29.99 in1015.6 mb 0.00 in0.0 mm 0.00 in0.0 mm 0.01 in0.3 mm
07:30 AM 47.8°F8.8°C 44.1°F6.7°C 87% 4.0 mph SSE6.4 kmh SSE 9.0 mph14.5 kmh 29.98 in1015.2 mb 0.00 in0.0 mm 0.00 in0.0 mm 0.01 in0.3 mm
07:45 AM 48.3°F9.1°C 44.0°F6.7°C 85% 6.0 mph SSE9.7 kmh SSE 11.0 mph17.7 kmh 29.98 in1015.2 mb 0.00 in0.0 mm 0.00 in0.0 mm 0.01 in0.3 mm
08:00 AM 48.3°F9.1°C 43.7°F6.5°C 84% 5.0 mph SSE8.0 kmh SSE 10.0 mph16.1 kmh 29.98 in1015.2 mb 0.00 in0.0 mm 0.00 in0.0 mm 0.01 in0.3 mm
08:15 AM 48.3°F9.1°C 43.7°F6.5°C 84% 4.0 mph SSE6.4 kmh SSE 10.0 mph16.1 kmh 29.98 in1015.2 mb 0.00 in0.0 mm 0.00 in0.0 mm 0.01 in0.3 mm
08:30 AM 48.9°F9.4°C 44.0°F6.7°C 83% 4.0 mph SSE6.4 kmh SSE 9.0 mph14.5 kmh 29.98 in1015.2 mb 0.00 in0.0 mm 0.00 in0.0 mm 0.01 in0.3 mm
08:45 AM 49.4°F9.7°C 44.1°F6.7°C 82% 5.0 mph SSE8.0 kmh SSE 10.0 mph16.1 kmh 29.98 in1015.2 mb 0.00 in0.0 mm 0.00 in0.0 mm 0.01 in0.3 mm
09:00 AM 49.7°F9.8°C 43.8°F6.6°C 80% 6.0 mph SSE9.7 kmh SSE 12.0 mph19.3 kmh 29.98 in1015.2 mb 0.00 in0.0 mm 0.00 in0.0 mm 0.01 in0.3 mm
09:15 AM 50.0°F10.0°C 44.1°F6.7°C 80% 4.0 mph SSE6.4 kmh SSE 11.0 mph17.7 kmh 29.97 in1014.9 mb 0.00 in0.0 mm 0.00 in0.0 mm 0.01 in0.3 mm
09:30 AM 50.2°F10.1°C 43.9°F6.6°C 79% 5.0 mph S8.0 kmh S 12.0 mph19.3 kmh 29.97 in1014.9 mb 0.00 in0.0 mm 0.00 in0.0 mm 0.01 in0.3 mm
09:45 AM 50.2°F10.1°C 43.9°F6.6°C 79% 7.0 mph S11.3 kmh S 12.0 mph19.3 kmh 29.97 in1014.9 mb 0.00 in0.0 mm 0.00 in0.0 mm 0.01 in0.3 mm
10:00 AM 50.3°F10.2°C 44.0°F6.7°C 79% 8.0 mph S12.9 kmh S 16.0 mph25.7 kmh 29.97 in1014.9 mb 0.00 in0.0 mm 0.00 in0.0 mm 0.01 in0.3 mm
10:15 AM 50.1°F10.1°C 44.2°F6.8°C 80% 7.0 mph S11.3 kmh S 14.0 mph22.5 kmh 29.98 in1015.2 mb 0.00 in0.0 mm 0.00 in0.0 mm 0.01 in0.3 mm
10:30 AM 50.0°F10.0°C 44.7°F7.1°C 82% 6.0 mph S9.7 kmh S 11.0 mph17.7 kmh 29.98 in1015.2 mb 0.00 in0.0 mm 0.00 in0.0 mm 0.01 in0.3 mm
10:45 AM 50.3°F10.2°C 44.7°F7.1°C 81% 5.0 mph S8.0 kmh S 10.0 mph16.1 kmh 29.99 in1015.6 mb 0.00 in0.0 mm 0.00 in0.0 mm 0.01 in0.3 mm
11:00 AM 50.8°F10.4°C 45.5°F7.5°C 82% 4.0 mph S6.4 kmh S 8.0 mph12.9 kmh 29.99 in1015.6 mb 0.00 in0.0 mm 0.00 in0.0 mm 0.01 in0.3 mm
11:15 AM 51.0°F10.6°C 45.0°F7.2°C 80% 4.0 mph S6.4 kmh S 8.0 mph12.9 kmh 29.99 in1015.6 mb 0.00 in0.0 mm 0.00 in0.0 mm 0.01 in0.3 mm
11:30 AM 51.6°F10.9°C 45.3°F7.4°C 79% 3.0 mph SSW4.8 kmh SSW 9.0 mph14.5 kmh 29.99 in1015.6 mb 0.00 in0.0 mm 0.00 in0.0 mm 0.01 in0.3 mm
11:45 AM 51.3°F10.7°C 45.3°F7.4°C 80% 4.0 mph SW6.4 kmh SW 8.0 mph12.9 kmh 29.99 in1015.6 mb 0.00 in0.0 mm 0.00 in0.0 mm 0.01 in0.3 mm
12:00 PM 50.9°F10.5°C 45.3°F7.4°C 81% 4.0 mph SW6.4 kmh SW 11.0 mph17.7 kmh 29.99 in1015.6 mb 0.00 in0.0 mm 0.00 in0.0 mm 0.01 in0.3 mm
12:15 PM 51.3°F10.7°C 45.7°F7.6°C 81% 3.0 mph SW4.8 kmh SW 7.0 mph11.3 kmh 29.99 in1015.6 mb 0.00 in0.0 mm 0.00 in0.0 mm 0.01 in0.3 mm
12:30 PM 51.2°F10.7°C 45.6°F7.6°C 81% 4.0 mph SW6.4 kmh SW 9.0 mph14.5 kmh 29.98 in1015.2 mb 0.00 in0.0 mm 0.00 in0.0 mm 0.01 in0.3 mm
12:45 PM 51.6°F10.9°C 46.0°F7.8°C 81% 3.0 mph SW4.8 kmh SW 7.0 mph11.3 kmh 29.98 in1015.2 mb 0.00 in0.0 mm 0.00 in0.0 mm 0.01 in0.3 mm
01:00 PM 51.4°F10.8°C 45.8°F7.7°C 81% 3.0 mph SW4.8 kmh SW 8.0 mph12.9 kmh 29.98 in1015.2 mb 0.00 in0.0 mm 0.00 in0.0 mm 0.01 in0.3 mm
01:15 PM 51.7°F10.9°C 46.4°F8.0°C 82% 2.0 mph SW3.2 kmh SW 7.0 mph11.3 kmh 29.98 in1015.2 mb 0.00 in0.0 mm 0.00 in0.0 mm 0.01 in0.3 mm
01:30 PM 50.7°F10.4°C 45.7°F7.6°C 83% 4.0 mph SW6.4 kmh SW 9.0 mph14.5 kmh 29.98 in1015.2 mb 0.00 in0.0 mm 0.00 in0.0 mm 0.01 in0.3 mm
01:45 PM 50.9°F10.5°C 45.9°F7.7°C 83% 3.0 mph SSW4.8 kmh SSW 7.0 mph11.3 kmh 29.98 in1015.2 mb 0.00 in0.0 mm 0.00 in0.0 mm 0.01 in0.3 mm
02:00 PM 51.0°F10.6°C 46.0°F7.8°C 83% 2.0 mph SSW3.2 kmh SSW 6.0 mph9.7 kmh 29.98 in1015.2 mb 0.00 in0.0 mm 0.00 in0.0 mm 0.01 in0.3 mm
02:15 PM 50.8°F10.4°C 46.1°F7.8°C 84% 3.0 mph SSW4.8 kmh SSW 6.0 mph9.7 kmh 29.98 in1015.2 mb 0.00 in0.0 mm 0.00 in0.0 mm 0.01 in0.3 mm
02:30 PM 50.2°F10.1°C 45.9°F7.7°C 85% 4.0 mph SSW6.4 kmh SSW 10.0 mph16.1 kmh 29.98 in1015.2 mb 0.00 in0.0 mm 0.00 in0.0 mm 0.01 in0.3 mm
02:45 PM 50.9°F10.5°C 46.9°F8.3°C 86% 2.0 mph SSW3.2 kmh SSW 6.0 mph9.7 kmh 29.98 in1015.2 mb 0.00 in0.0 mm 0.00 in0.0 mm 0.01 in0.3 mm
03:00 PM 50.8°F10.4°C 46.8°F8.2°C 86% 4.0 mph SW6.4 kmh SW 10.0 mph16.1 kmh 29.98 in1015.2 mb 0.00 in0.0 mm 0.00 in0.0 mm 0.01 in0.3 mm
03:15 PM 50.4°F10.2°C 46.7°F8.2°C 87% 4.0 mph SW6.4 kmh SW 12.0 mph19.3 kmh 29.98 in1015.2 mb 0.00 in0.0 mm 0.00 in0.0 mm 0.01 in0.3 mm
03:30 PM 49.7°F9.8°C 46.3°F7.9°C 88% 2.0 mph SW3.2 kmh SW 6.0 mph9.7 kmh 29.99 in1015.6 mb 0.00 in0.0 mm 0.00 in0.0 mm 0.01 in0.3 mm
03:45 PM 49.5°F9.7°C 46.4°F8.0°C 89% 3.0 mph SSW4.8 kmh SSW 10.0 mph16.1 kmh 29.98 in1015.2 mb 0.00 in0.0 mm 0.00 in0.0 mm 0.01 in0.3 mm
04:00 PM 49.7°F9.8°C 46.6°F8.1°C 89% 5.0 mph S8.0 kmh S 10.0 mph16.1 kmh 29.98 in1015.2 mb 0.00 in0.0 mm 0.00 in0.0 mm 0.01 in0.3 mm
04:15 PM 49.8°F9.9°C 46.7°F8.2°C 89% 2.0 mph SSW3.2 kmh SSW 7.0 mph11.3 kmh 29.98 in1015.2 mb 0.00 in0.0 mm 0.00 in0.0 mm 0.01 in0.3 mm
04:30 PM 49.8°F9.9°C 47.0°F8.3°C 90% 4.0 mph SSW6.4 kmh SSW 10.0 mph16.1 kmh 29.98 in1015.2 mb 0.00 in0.0 mm 0.00 in0.0 mm 0.01 in0.3 mm
04:45 PM 49.7°F9.8°C 46.9°F8.3°C 90% 5.0 mph SSW8.0 kmh SSW 14.0 mph22.5 kmh 29.98 in1015.2 mb 0.00 in0.0 mm 0.00 in0.0 mm 0.01 in0.3 mm
05:00 PM 49.5°F9.7°C 46.7°F8.2°C 90% 3.0 mph SSW4.8 kmh SSW 10.0 mph16.1 kmh 29.98 in1015.2 mb 0.00 in0.0 mm 0.00 in0.0 mm 0.01 in0.3 mm
05:15 PM 49.5°F9.7°C 47.0°F8.3°C 91% 4.0 mph SSW6.4 kmh SSW 9.0 mph14.5 kmh 29.98 in1015.2 mb 0.00 in0.0 mm 0.00 in0.0 mm 0.01 in0.3 mm
05:30 PM 49.6°F9.8°C 46.8°F8.2°C 90% 5.0 mph SSW8.0 kmh SSW 11.0 mph17.7 kmh 29.99 in1015.6 mb 0.00 in0.0 mm 0.00 in0.0 mm 0.01 in0.3 mm
05:45 PM 49.3°F9.6°C 46.8°F8.2°C 91% 4.0 mph SSW6.4 kmh SSW 11.0 mph17.7 kmh 29.99 in1015.6 mb 0.00 in0.0 mm 0.00 in0.0 mm 0.01 in0.3 mm
06:00 PM 49.1°F9.5°C 46.6°F8.1°C 91% 3.0 mph S4.8 kmh S 8.0 mph12.9 kmh 29.99 in1015.6 mb 0.00 in0.0 mm 0.00 in0.0 mm 0.01 in0.3 mm
06:15 PM 48.9°F9.4°C 46.4°F8.0°C 91% 3.0 mph S4.8 kmh S 9.0 mph14.5 kmh 30.00 in1015.9 mb 0.00 in0.0 mm 0.00 in0.0 mm 0.01 in0.3 mm
06:30 PM 48.9°F9.4°C 46.7°F8.2°C 92% 3.0 mph SSW4.8 kmh SSW 7.0 mph11.3 kmh 29.99 in1015.6 mb 0.00 in0.0 mm 0.00 in0.0 mm 0.01 in0.3 mm
06:45 PM 48.8°F9.3°C 46.6°F8.1°C 92% 3.0 mph SSW4.8 kmh SSW 7.0 mph11.3 kmh 30.00 in1015.9 mb 0.00 in0.0 mm 0.00 in0.0 mm 0.01 in0.3 mm
07:00 PM 48.7°F9.3°C 46.5°F8.1°C 92% 3.0 mph S4.8 kmh S 7.0 mph11.3 kmh 30.00 in1015.9 mb 0.00 in0.0 mm 0.00 in0.0 mm 0.01 in0.3 mm
07:15 PM 48.9°F9.4°C 47.0°F8.3°C 93% 2.0 mph S3.2 kmh S 6.0 mph9.7 kmh 30.00 in1015.9 mb 0.00 in0.0 mm 0.00 in0.0 mm 0.01 in0.3 mm
07:30 PM 48.9°F9.4°C 47.0°F8.3°C 93% 3.0 mph SSW4.8 kmh SSW 7.0 mph11.3 kmh 29.99 in1015.6 mb 0.00 in0.0 mm 0.00 in0.0 mm 0.01 in0.3 mm
07:45 PM 48.8°F9.3°C 46.9°F8.3°C 93% 3.0 mph S4.8 kmh S 7.0 mph11.3 kmh 30.00 in1015.9 mb 0.00 in0.0 mm 0.00 in0.0 mm 0.01 in0.3 mm
08:00 PM 48.7°F9.3°C 46.8°F8.2°C 93% 1.0 mph SSW1.6 kmh SSW 5.0 mph8.0 kmh 29.99 in1015.6 mb 0.00 in0.0 mm 0.00 in0.0 mm 0.01 in0.3 mm
08:15 PM 49.1°F9.5°C 47.2°F8.4°C 93% 3.0 mph SW4.8 kmh SW 8.0 mph12.9 kmh 30.00 in1015.9 mb 0.00 in0.0 mm 0.00 in0.0 mm 0.01 in0.3 mm
08:30 PM 49.1°F9.5°C 47.2°F8.4°C 93% 2.0 mph SW3.2 kmh SW 6.0 mph9.7 kmh 30.00 in1015.9 mb 0.00 in0.0 mm 0.00 in0.0 mm 0.01 in0.3 mm
08:45 PM 48.9°F9.4°C 47.0°F8.3°C 93% 2.0 mph SSW3.2 kmh SSW 4.0 mph6.4 kmh 30.00 in1015.9 mb 0.00 in0.0 mm 0.00 in0.0 mm 0.01 in0.3 mm
09:00 PM 48.7°F9.3°C 46.8°F8.2°C 93% 1.0 mph SSW1.6 kmh SSW 5.0 mph8.0 kmh 30.00 in1015.9 mb 0.01 in0.3 mm 0.01 in0.3 mm 0.02 in0.5 mm
09:15 PM 48.9°F9.4°C 47.2°F8.4°C 94% 2.0 mph SSW3.2 kmh SSW 5.0 mph8.0 kmh 30.00 in1015.9 mb 0.01 in0.3 mm 0.00 in0.0 mm 0.02 in0.5 mm
09:30 PM 48.5°F9.2°C 46.9°F8.3°C 94% 2.0 mph SSW3.2 kmh SSW 5.0 mph8.0 kmh 30.00 in1015.9 mb 0.01 in0.3 mm 0.00 in0.0 mm 0.02 in0.5 mm
09:45 PM 48.5°F9.2°C 46.9°F8.3°C 94% 2.0 mph SSW3.2 kmh SSW 5.0 mph8.0 kmh 30.00 in1015.9 mb 0.01 in0.3 mm 0.00 in0.0 mm 0.02 in0.5 mm
10:00 PM 48.8°F9.3°C 47.2°F8.4°C 94% 2.0 mph SW3.2 kmh SW 7.0 mph11.3 kmh 30.01 in1016.3 mb 0.00 in0.0 mm 0.00 in0.0 mm 0.02 in0.5 mm
10:15 PM 48.9°F9.4°C 47.5°F8.6°C 95% 1.0 mph WSW1.6 kmh WSW 6.0 mph9.7 kmh 30.00 in1015.9 mb 0.00 in0.0 mm 0.00 in0.0 mm 0.02 in0.5 mm
10:30 PM 48.9°F9.4°C 47.5°F8.6°C 95% 1.0 mph WSW1.6 kmh WSW 4.0 mph6.4 kmh 30.00 in1015.9 mb 0.00 in0.0 mm 0.00 in0.0 mm 0.02 in0.5 mm
10:45 PM 48.7°F9.3°C 47.3°F8.5°C 95% 1.0 mph SW1.6 kmh SW 8.0 mph12.9 kmh 30.00 in1015.9 mb 0.00 in0.0 mm 0.00 in0.0 mm 0.02 in0.5 mm
11:00 PM 48.6°F9.2°C 47.2°F8.4°C 95% 2.0 mph WSW3.2 kmh WSW 6.0 mph9.7 kmh 30.01 in1016.3 mb 0.00 in0.0 mm 0.00 in0.0 mm 0.02 in0.5 mm
11:15 PM 48.7°F9.3°C 47.3°F8.5°C 95% 2.0 mph WSW3.2 kmh WSW 5.0 mph8.0 kmh 30.01 in1016.3 mb 0.00 in0.0 mm 0.00 in0.0 mm 0.02 in0.5 mm
11:30 PM 48.6°F9.2°C 47.0°F8.3°C 94% 2.0 mph SW3.2 kmh SW 6.0 mph9.7 kmh 30.01 in1016.3 mb 0.00 in0.0 mm 0.00 in0.0 mm 0.02 in0.5 mm
11:45 PM 48.6°F9.2°C 47.0°F8.3°C 94% 2.0 mph SW3.2 kmh SW 4.0 mph6.4 kmh 30.01 in1016.3 mb 0.01 in0.3 mm 0.04 in1.0 mm 0.02 in0.5 mm